Time;durP1;ratioP1;P1;durP2;ratioP2;P2;SDS_P1;SDS_P2;PMS_P1;PMS_P2;Temp;Humidity;BMP_temperature;BMP_pressure;BME280_temperature;BME280_humidity;BME280_pressure;Samples;Min_cycle;Max_cycle;Signal;HPM_P1;HPM_P2
2021/11/14 00:02:07;;;;;;;55.88;44.67;;;6.80;99.90;;;6.90;75.59;101322.72;4954847;29;20555;-76
2021/11/14 00:04:37;;;;;;;60.85;46.75;;;6.90;99.90;;;6.89;75.59;101324.56;4954898;29;20206;-75
2021/11/14 00:07:08;;;;;;;95.82;66.10;;;6.90;99.90;;;6.87;75.45;101328.47;4956414;28;20281;-76
2021/11/14 00:09:36;;;;;;;116.32;78.25;;;6.90;1.00;;;6.81;75.86;101332.66;4956200;29;20184;-74
2021/11/14 00:12:06;;;;;;;99.85;71.00;;;6.80;78.80;;;6.89;75.60;101339.88;4954902;28;20203;-75
2021/11/14 00:14:35;;;;;;;72.03;55.10;;;6.90;99.90;;;6.85;75.85;101335.84;4961802;29;20606;-74
2021/11/14 00:17:05;;;;;;;70.93;55.65;;;6.90;99.90;;;6.88;75.59;101344.41;4963629;29;20302;-74
2021/11/14 00:19:35;;;;;;;62.10;49.58;;;7.00;72.70;;;6.81;75.66;101337.19;4960864;29;20534;-75
2021/11/14 00:22:09;;;;;;;53.15;43.42;;;6.90;1.00;;;6.84;75.87;101339.53;4956595;29;20243;-75
2021/11/14 00:24:38;;;;;;;52.05;41.85;;;6.90;99.90;;;6.76;76.23;101336.84;4955424;29;20508;-75
2021/11/14 00:27:07;;;;;;;49.05;41.92;;;6.80;99.90;;;6.82;76.01;101345.09;4956541;28;20695;-74
2021/11/14 00:29:35;;;;;;;54.63;42.67;;;6.80;99.90;;;6.82;76.17;101337.03;4959024;29;20199;-74
2021/11/14 00:32:05;;;;;;;47.40;39.03;;;6.80;99.90;;;6.87;75.57;101341.91;4965101;29;20231;-74
2021/11/14 00:34:35;;;;;;;43.78;36.80;;;6.90;99.90;;;6.81;75.99;101343.41;4965122;29;20463;-74
2021/11/14 00:37:04;;;;;;;47.67;37.53;;;6.90;99.90;;;6.81;76.03;101340.72;4962547;29;20212;-75
2021/11/14 00:39:34;;;;;;;44.40;35.67;;;6.90;99.90;;;6.91;75.44;101337.88;4954679;29;20247;-75
2021/11/14 00:42:03;;;;;;;42.15;35.50;;;6.90;99.90;;;6.92;75.57;101344.94;4970519;28;20203;-75
2021/11/14 00:44:31;;;;;;;44.05;36.88;;;7.00;1.00;;;6.85;75.87;101349.28;4955622;29;20232;-76
2021/11/14 00:47:00;;;;;;;45.67;36.10;;;7.00;23.00;;;6.93;75.87;101343.91;4954568;29;20218;-76
2021/11/14 00:49:29;;;;;;;39.63;34.75;;;6.90;99.90;;;6.85;76.16;101343.91;4955360;28;20180;-74
2021/11/14 00:51:58;;;;;;;41.70;35.25;;;6.80;99.90;;;6.86;76.11;101350.97;4955078;28;20648;-76
2021/11/14 00:54:26;;;;;;;43.38;35.85;;;6.80;1.00;;;6.93;75.78;101351.97;4954190;29;20204;-74
2021/11/14 00:56:56;;;;;;;45.13;37.65;;;6.90;99.90;;;6.96;75.75;101354.34;4954041;29;20196;-75
2021/11/14 00:59:24;;;;;;;45.45;36.95;;;7.00;99.90;;;6.93;76.24;101360.91;4955274;29;20180;-76
2021/11/14 01:01:53;;;;;;;43.15;34.85;;;7.00;1.00;;;7.11;75.55;101366.13;4969907;28;20207;-75
2021/11/14 01:04:22;;;;;;;47.42;37.70;;;7.10;99.90;;;7.24;74.83;101360.25;4954965;29;20231;-75
2021/11/14 01:06:50;;;;;;;40.78;34.88;;;7.20;61.00;;;7.12;75.18;101364.25;4954883;29;20180;-75
2021/11/14 01:09:18;;;;;;;41.75;34.55;;;7.20;1.00;;;7.05;75.70;101368.66;4954722;29;20408;-74
2021/11/14 01:11:47;;;;;;;50.08;36.83;;;7.10;72.20;;;7.09;75.35;101368.16;4954723;29;20275;-74
2021/11/14 01:14:17;;;;;;;41.45;35.80;;;7.20;1.00;;;7.11;75.39;101365.28;4953833;29;20220;-75
2021/11/14 01:16:46;;;;;;;47.78;37.70;;;7.20;1.00;;;7.07;75.19;101370.16;4953722;28;20188;-75
2021/11/14 01:19:14;;;;;;;50.67;38.47;;;7.20;1.00;;;7.06;75.52;101368.50;4954829;28;20200;-75
2021/11/14 01:21:46;;;;;;;42.50;35.40;;;7.10;1.00;;;7.11;75.09;101368.84;4953490;28;20315;-74
2021/11/14 01:24:17;;;;;;;49.38;38.58;;;7.10;1.00;;;6.92;75.81;101371.84;4954663;29;20693;-75
2021/11/14 01:26:46;;;;;;;49.47;40.00;;;7.10;1.00;;;6.92;75.38;101372.66;4953352;29;20272;-75
2021/11/14 01:29:15;;;;;;;48.92;39.50;;;7.00;1.00;;;6.72;76.55;101381.22;4953361;29;20196;-75
2021/11/14 01:31:44;;;;;;;46.08;37.70;;;6.90;1.00;;;6.80;76.21;101378.53;4953478;29;20204;-75
2021/11/14 01:34:12;;;;;;;45.60;39.47;;;6.80;99.90;;;6.75;76.56;101388.97;4954463;28;20291;-75
2021/11/14 01:36:41;;;;;;;51.03;39.45;;;6.80;99.90;;;6.58;77.27;101379.19;4954671;29;20200;-75
2021/11/14 01:39:09;;;;;;;44.95;37.05;;;6.70;78.30;;;6.70;76.61;101377.84;4953227;29;20688;-75
2021/11/14 01:41:38;;;;;;;51.45;41.00;;;6.70;99.90;;;6.76;76.33;101378.03;4953337;29;20196;-74
2021/11/14 01:44:08;;;;;;;47.35;37.72;;;6.70;99.90;;;6.72;76.81;101381.22;4954536;29;20211;-76
2021/11/14 01:46:38;;;;;;;42.47;36.58;;;6.70;99.90;;;6.62;77.04;101380.53;4953554;29;20188;-75
2021/11/14 01:49:08;;;;;;;46.25;38.58;;;6.70;99.90;;;6.56;77.41;101398.16;4954594;29;20180;-75
2021/11/14 01:51:56;;;;;;;41.85;31.73;;;6.60;99.90;;;6.68;76.54;101383.38;4953473;29;20188;-75
2021/11/14 01:54:24;;;;;;;41.53;33.33;;;6.70;99.90;;;6.67;76.58;101383.56;4969268;28;20227;-75
2021/11/14 01:56:53;;;;;;;47.20;36.22;;;6.70;99.90;;;6.54;77.16;101392.94;4952996;29;20188;-75
2021/11/14 01:59:21;;;;;;;39.13;32.65;;;6.60;99.90;;;6.58;77.54;101401.53;4953129;29;20231;-75
2021/11/14 02:01:52;;;;;;;39.35;32.08;;;6.60;99.90;;;6.68;76.88;101396.03;4954324;29;20252;-74
2021/11/14 02:04:21;;;;;;;35.88;30.75;;;6.60;99.90;;;6.74;76.72;101403.41;4954712;28;20266;-75
2021/11/14 02:06:49;;;;;;;42.60;33.25;;;6.70;99.90;;;6.68;76.45;101404.91;4969198;28;20184;-75
2021/11/14 02:09:18;;;;;;;40.70;31.25;;;6.70;99.90;;;6.62;76.88;101402.91;4954689;28;20180;-75
2021/11/14 02:11:47;;;;;;;39.72;32.90;;;6.70;99.90;;;6.62;77.00;101405.59;4953571;29;20211;-75
2021/11/14 02:14:15;;;;;;;37.45;32.20;;;6.70;99.90;;;6.73;76.96;101409.81;4954676;28;20208;-75
2021/11/14 02:16:44;;;;;;;38.70;31.10;;;6.70;99.90;;;6.74;76.58;101415.00;4969312;28;20193;-76
2021/11/14 02:19:14;;;;;;;36.60;28.13;;;6.70;99.90;;;6.77;76.21;101416.53;4953353;29;20690;-74
2021/11/14 02:21:44;;;;;;;33.42;29.75;;;6.80;99.90;;;6.73;76.54;101421.38;4954368;29;20439;-75
2021/11/14 02:24:12;;;;;;;35.63;29.25;;;6.80;99.90;;;6.77;76.08;101427.31;4953443;29;20592;-74
2021/11/14 02:26:41;;;;;;;36.45;29.63;;;6.80;99.90;;;6.75;76.44;101429.31;4969852;28;20192;-74
2021/11/14 02:29:09;;;;;;;33.95;27.98;;;6.80;99.90;;;6.80;75.96;101435.03;4955648;28;20651;-75
2021/11/14 02:31:39;;;;;;;37.75;29.23;;;6.90;99.90;;;6.73;76.39;101442.09;4954528;29;20172;-75
2021/11/14 02:34:08;;;;;;;35.20;28.25;;;6.70;99.90;;;6.70;76.12;101442.41;4953480;29;20639;-74
2021/11/14 02:36:37;;;;;;;35.92;28.83;;;6.70;99.90;;;6.75;76.25;101450.81;4954774;29;20181;-75
2021/11/14 02:39:08;;;;;;;40.58;27.48;;;6.80;99.90;;;6.80;76.08;101453.88;4954639;29;20200;-75
2021/11/14 02:41:37;;;;;;;30.80;26.15;;;6.80;99.90;;;6.73;75.98;101458.25;4954568;29;20172;-75
2021/11/14 02:44:06;;;;;;;33.80;26.73;;;6.80;99.90;;;6.68;76.37;101455.19;4954096;28;20217;-75
2021/11/14 02:46:34;;;;;;;34.92;28.95;;;6.80;99.90;;;6.90;75.75;101468.03;4954881;28;20203;-75
2021/11/14 02:49:03;;;;;;;34.58;28.35;;;6.80;99.90;;;6.81;75.78;101460.94;4958037;29;20172;-76
2021/11/14 02:51:34;;;;;;;33.72;28.55;;;6.80;99.90;;;6.81;75.87;101458.25;4958007;28;20184;-76
2021/11/14 02:54:05;;;;;;;37.72;28.10;;;6.80;99.90;;;6.78;75.88;101461.25;4957482;28;20299;-75
2021/11/14 02:56:36;;;;;;;34.35;29.05;;;6.80;99.90;;;6.76;75.86;101457.91;4957632;29;20180;-75
2021/11/14 02:59:05;;;;;;;34.30;25.95;;;6.80;99.90;;;6.87;75.54;101465.66;4957589;28;20677;-75
2021/11/14 03:01:41;;;;;;;31.83;27.48;;;6.80;99.90;;;6.83;75.78;101464.28;4972366;28;20532;-74
2021/11/14 03:04:12;;;;;;;38.03;26.95;;;6.80;99.90;;;6.78;75.88;101469.31;4957499;29;20215;-75
2021/11/14 03:06:40;;;;;;;30.02;24.65;;;6.80;99.90;;;6.80;75.57;101467.31;4957368;29;20270;-75
2021/11/14 03:09:09;;;;;;;32.17;25.00;;;6.90;99.90;;;6.82;75.06;101468.00;4957321;29;20208;-75
2021/11/14 03:11:39;;;;;;;35.80;26.98;;;6.90;99.90;;;6.76;75.59;101477.56;4956047;29;20511;-75
2021/11/14 03:14:08;;;;;;;31.60;23.92;;;6.80;99.90;;;6.68;75.67;101474.03;4957393;29;20531;-75
2021/11/14 03:16:38;;;;;;;31.38;23.73;;;6.80;99.90;;;6.85;74.60;101475.75;4958199;29;20182;-75
2021/11/14 03:19:07;;;;;;;33.63;26.20;;;6.90;99.90;;;6.73;75.20;101469.00;4955854;28;20622;-74
2021/11/14 03:21:35;;;;;;;36.22;24.55;;;6.80;99.90;;;6.78;75.13;101482.78;4957539;28;20184;-76
2021/11/14 03:24:05;;;;;;;36.42;27.13;;;6.80;99.90;;;6.66;75.70;101489.47;4957292;29;20212;-74
2021/11/14 03:26:34;;;;;;;32.70;24.75;;;6.70;99.90;;;6.64;75.79;101480.69;4957284;29;20176;-74
2021/11/14 03:29:05;;;;;;;34.25;26.95;;;6.70;99.90;;;6.59;75.91;101488.41;4957487;29;20584;-75
2021/11/14 03:31:35;;;;;;;41.55;25.65;;;6.70;99.90;;;6.46;76.40;101481.66;4967547;23;20195;31
2021/11/14 03:34:04;;;;;;;36.53;26.73;;;6.60;99.90;;;6.45;76.88;101490.72;4932148;29;20731;-74
2021/11/14 03:36:33;;;;;;;32.60;25.95;;;6.50;99.90;;;6.45;76.60;101487.19;4921666;29;20193;-74
2021/11/14 03:39:07;;;;;;;36.38;25.65;;;6.50;99.90;;;6.51;76.54;101487.38;4918044;29;20281;-74
2021/11/14 03:41:40;;;;;;;31.48;24.98;;;6.50;99.90;;;6.49;76.60;101486.69;4918098;29;20412;-75
2021/11/14 03:44:12;;;;;;;33.20;24.58;;;6.50;99.90;;;6.54;76.71;101492.44;4918247;29;20623;-74
2021/11/14 03:46:41;;;;;;;33.35;25.20;;;6.50;99.90;;;6.61;75.97;101494.47;4918071;29;20300;-74
2021/11/14 03:49:11;;;;;;;32.88;25.63;;;6.60;99.90;;;6.59;76.16;101488.41;4917913;29;20192;-74
2021/11/14 03:51:40;;;;;;;34.10;27.90;;;6.60;99.90;;;6.45;76.60;101493.41;4918395;29;20186;-75
2021/11/14 03:54:08;;;;;;;34.83;25.30;;;6.60;99.90;;;6.51;76.23;101497.31;4917947;29;20217;-74
2021/11/14 03:56:37;;;;;;;31.48;27.52;;;6.60;99.90;;;6.42;76.78;101499.13;4918067;29;20200;-74
2021/11/14 03:59:06;;;;;;;33.08;26.77;;;6.50;99.90;;;6.31;76.82;101490.47;4918640;29;20276;-73
2021/11/14 04:01:35;;;;;;;35.42;27.13;;;6.40;99.90;;;6.38;76.79;101496.91;4918725;29;20280;-74
2021/11/14 04:04:05;;;;;;;35.30;24.73;;;6.40;99.90;;;6.40;76.51;101501.09;4917301;29;20241;-75
2021/11/14 04:06:33;;;;;;;37.67;24.38;;;6.40;99.90;;;6.45;76.47;101493.41;4918630;29;20198;-74
2021/11/14 04:09:03;;;;;;;36.22;26.45;;;6.40;99.90;;;6.47;76.65;101507.53;4916806;29;20206;-74
2021/11/14 04:11:31;;;;;;;34.75;25.27;;;6.50;99.90;;;6.47;76.40;101504.84;4917249;29;20196;-74
2021/11/14 04:14:00;;;;;;;32.05;23.90;;;6.50;99.90;;;6.38;76.59;101502.28;4918107;29;20213;-74
2021/11/14 04:16:29;;;;;;;37.90;25.30;;;6.40;99.90;;;6.28;77.01;101502.41;4917413;29;20204;-75
2021/11/14 04:18:59;;;;;;;36.08;26.05;;;6.40;99.90;;;6.33;76.73;101504.59;4917718;29;20601;-74
2021/11/14 04:21:28;;;;;;;42.17;28.13;;;6.40;99.90;;;6.31;76.45;101502.06;4916449;29;20330;-75
2021/11/14 04:23:56;;;;;;;33.65;25.90;;;6.40;99.90;;;6.15;77.30;101510.03;4915746;29;20221;-73
2021/11/14 04:26:29;;;;;;;35.58;26.50;;;6.30;99.90;;;6.25;77.14;101513.44;4917203;29;20379;-74
2021/11/14 04:28:58;;;;;;;38.95;29.08;;;6.30;99.90;;;6.07;77.81;101516.22;4916009;29;20186;-74
2021/11/14 04:31:27;;;;;;;32.55;24.20;;;6.20;99.90;;;6.17;77.67;101516.09;4915684;29;20397;-75
2021/11/14 04:33:56;;;;;;;34.55;25.42;;;6.20;99.90;;;6.14;77.23;101516.44;4916878;29;20221;-74
2021/11/14 04:36:25;;;;;;;37.50;26.50;;;6.20;99.90;;;6.16;77.25;101517.09;4917660;29;20186;-74
2021/11/14 04:38:54;;;;;;;35.60;24.25;;;6.20;99.90;;;6.10;77.46;101515.03;4917194;29;20648;-75
2021/11/14 04:41:22;;;;;;;34.97;26.90;;;6.20;99.90;;;6.09;77.15;101526.81;4917263;29;20190;-74
2021/11/14 04:43:52;;;;;;;38.33;26.35;;;6.20;99.90;;;6.04;77.17;101527.28;4917201;29;20210;-74
2021/11/14 04:46:21;;;;;;;34.58;25.02;;;6.10;99.90;;;5.82;77.94;101526.88;4916833;29;20186;-74
2021/11/14 04:48:49;;;;;;;34.17;26.08;;;6.00;99.90;;;5.72;78.17;101531.50;4916844;29;20178;-74
2021/11/14 04:51:18;;;;;;;37.78;25.13;;;5.80;99.90;;;5.61;78.36;101530.78;4916919;29;20679;-75
2021/11/14 04:53:48;;;;;;;40.28;27.73;;;5.80;99.90;;;5.55;78.50;101534.06;4917056;29;20210;-75
2021/11/14 04:56:16;;;;;;;36.60;27.02;;;5.70;99.90;;;5.42;78.67;101540.81;4916824;29;20178;-74
2021/11/14 04:58:45;;;;;;;36.53;28.20;;;5.60;99.90;;;5.35;79.09;101545.09;4916908;29;20188;-74
2021/11/14 05:01:14;;;;;;;30.88;23.73;;;5.50;99.90;;;5.23;79.17;101548.00;4917043;29;20213;-74
2021/11/14 05:03:43;;;;;;;37.47;27.35;;;5.40;99.90;;;5.22;79.54;101548.16;4924507;29;20687;-75
2021/11/14 05:06:13;;;;;;;39.45;27.13;;;5.40;99.90;;;5.13;79.94;101547.22;4932590;29;20196;-75
2021/11/14 05:08:41;;;;;;;45.17;26.90;;;5.30;99.90;;;5.16;80.00;101554.13;4931304;29;20742;-75
2021/11/14 05:11:11;;;;;;;34.58;26.05;;;5.30;99.90;;;5.07;80.02;101557.72;4929942;29;20185;-75
2021/11/14 05:13:39;;;;;;;38.75;28.55;;;5.30;99.90;;;5.03;80.45;101567.06;4918851;29;20216;-74
2021/11/14 05:16:08;;;;;;;38.47;26.15;;;5.20;99.90;;;4.98;80.43;101572.03;4916677;29;20197;-74
2021/11/14 05:18:36;;;;;;;34.10;24.15;;;5.20;99.90;;;4.91;80.62;101571.78;4917315;29;20205;-74
2021/11/14 05:21:04;;;;;;;40.80;28.95;;;5.10;99.90;;;4.94;80.43;101573.34;4923249;29;20216;-73
2021/11/14 05:23:33;;;;;;;41.72;25.77;;;5.10;99.90;;;5.03;80.44;101583.16;4929695;29;20249;-75
2021/11/14 05:26:01;;;;;;;50.70;30.15;;;5.10;99.90;;;4.97;80.49;101589.97;4932177;29;20205;-74
2021/11/14 05:28:32;;;;;;;40.47;26.98;;;5.10;99.90;;;5.01;80.42;101590.50;4932547;29;20197;-75
2021/11/14 05:31:01;;;;;;;37.13;26.95;;;5.10;99.90;;;5.15;79.62;101593.53;4931657;29;20217;-75
2021/11/14 05:33:29;;;;;;;42.00;28.08;;;5.20;99.90;;;5.05;80.10;101592.75;4927837;29;20221;-74
2021/11/14 05:35:58;;;;;;;41.05;28.38;;;5.20;99.90;;;5.06;79.94;101599.81;4923606;29;20194;-74
2021/11/14 05:38:27;;;;;;;38.67;27.92;;;5.20;99.90;;;5.03;79.95;101610.84;4922742;29;20597;-74
2021/11/14 05:40:55;;;;;;;38.20;26.98;;;5.20;99.90;;;5.14;79.18;101617.81;4921864;29;20690;-75
2021/11/14 05:43:23;;;;;;;39.60;27.88;;;5.20;99.90;;;5.08;79.42;101618.44;4921492;29;20217;-75
2021/11/14 05:45:53;;;;;;;48.15;29.20;;;5.20;99.90;;;4.94;79.66;101637.72;4918430;29;20192;-75
2021/11/14 05:48:22;;;;;;;40.10;25.75;;;5.10;99.90;;;4.84;79.66;101639.59;4917208;29;20281;-75
2021/11/14 05:50:51;;;;;;;36.53;24.27;;;5.00;99.90;;;4.64;79.93;101647.69;4916315;29;20169;-74
2021/11/14 05:53:19;;;;;;;36.83;27.40;;;4.80;99.90;;;4.81;79.97;101648.75;4915970;29;20215;-74
2021/11/14 05:55:47;;;;;;;37.28;28.08;;;4.90;99.90;;;4.58;79.78;101656.31;4916215;29;20184;-74
2021/11/14 05:58:18;;;;;;;38.28;27.00;;;4.70;99.90;;;4.58;79.94;101659.00;4915973;29;20181;-73
2021/11/14 06:00:53;;;;;;;40.17;26.35;;;4.70;99.90;;;4.36;80.14;101656.63;4916175;29;20201;-74
2021/11/14 06:03:31;;;;;;;38.03;26.65;;;4.60;99.90;;;4.31;80.74;101666.91;4916090;29;20212;-73
2021/11/14 06:06:00;;;;;;;38.13;27.67;;;4.50;99.90;;;4.31;80.59;101666.91;4915989;29;20181;-74
2021/11/14 06:08:28;;;;;;;52.53;27.60;;;4.40;99.90;;;4.29;80.59;101675.13;4914796;29;20185;-74
2021/11/14 06:10:58;;;;;;;46.88;29.42;;;4.40;99.90;;;4.18;80.68;101682.44;4914904;29;20182;-74
2021/11/14 06:13:32;;;;;;;38.67;26.98;;;4.30;99.90;;;4.33;80.49;101681.03;4916436;29;20221;-75
2021/11/14 06:16:01;;;;;;;42.30;26.85;;;4.30;99.90;;;4.28;80.38;101683.28;4916176;29;20186;-75
2021/11/14 06:18:31;;;;;;;43.10;29.90;;;4.40;99.90;;;4.18;80.42;101693.16;4914958;29;20558;-74
2021/11/14 06:21:01;;;;;;;44.38;29.13;;;4.30;99.90;;;4.24;80.67;101692.59;4915910;29;20635;-74
2021/11/14 06:23:30;;;;;;;47.35;29.52;;;4.30;99.90;;;4.17;80.37;101699.50;4919735;29;20241;-74
2021/11/14 06:25:58;;;;;;;48.92;28.60;;;4.30;99.90;;;4.00;81.09;101697.53;4919825;29;20189;-75
2021/11/14 06:28:28;;;;;;;41.60;26.83;;;4.20;99.90;;;3.99;81.02;101707.41;4920013;29;20734;-74
2021/11/14 06:30:57;;;;;;;35.30;26.90;;;4.10;99.90;;;3.98;81.06;101715.56;4918678;29;20197;-74
2021/11/14 06:33:25;;;;;;;39.55;23.42;;;4.10;99.90;;;4.01;80.91;101712.63;4919736;29;20706;-74
2021/11/14 06:35:57;;;;;;;42.08;28.63;;;4.00;99.90;;;4.01;80.07;101720.66;4919599;29;20182;-74
2021/11/14 06:38:25;;;;;;;41.92;28.25;;;4.10;99.90;;;3.94;80.97;101717.69;4920275;29;20651;-74
2021/11/14 06:40:54;;;;;;;37.83;27.25;;;4.00;99.90;;;3.94;80.46;101726.56;4919383;29;20209;-74
2021/11/14 06:43:23;;;;;;;41.92;26.58;;;4.00;99.90;;;3.75;81.05;101731.88;4919733;29;20288;-74
2021/11/14 06:45:51;;;;;;;49.17;27.10;;;3.90;99.90;;;3.74;81.22;101738.22;4920202;29;20273;-74
2021/11/14 06:48:19;;;;;;;39.58;26.30;;;3.90;99.90;;;3.76;81.70;101746.97;4920239;29;20201;-74
2021/11/14 06:50:48;;;;;;;43.08;27.50;;;3.90;99.90;;;3.87;81.38;101746.84;4918814;29;20189;-75
2021/11/14 06:53:18;;;;;;;40.47;28.25;;;3.90;99.90;;;4.07;80.34;101752.22;4919965;29;20292;-74
2021/11/14 06:55:46;;;;;;;46.60;29.85;;;4.10;99.90;;;3.99;80.63;101758.28;4920062;29;20186;-75
2021/11/14 06:58:15;;;;;;;43.95;29.52;;;4.10;99.90;;;3.90;80.70;101762.66;4919428;29;20185;-75
2021/11/14 07:00:43;;;;;;;50.30;29.70;;;4.00;99.90;;;3.82;81.11;101772.38;4919296;29;20202;-75
2021/11/14 07:03:12;;;;;;;47.13;29.33;;;4.00;99.90;;;3.93;81.06;101777.56;4919414;29;20288;-74
2021/11/14 07:05:40;;;;;;;46.53;28.08;;;4.00;99.90;;;4.01;80.79;101774.22;4919350;29;20192;-75
2021/11/14 07:08:09;;;;;;;46.47;31.65;;;4.00;99.90;;;4.14;80.48;101778.34;4919266;29;20587;-74
2021/11/14 07:10:39;;;;;;;47.33;30.90;;;4.10;99.90;;;3.97;80.54;101780.84;4919285;29;20264;-75
2021/11/14 07:13:08;;;;;;;51.63;29.00;;;4.10;99.90;;;4.02;80.76;101779.44;4919150;29;20225;-74
2021/11/14 07:15:36;;;;;;;50.22;30.40;;;4.10;99.90;;;4.08;80.45;101783.38;4919290;29;20184;-75
2021/11/14 07:18:05;;;;;;;51.05;30.75;;;4.10;99.90;;;4.11;80.51;101777.78;4919573;29;20703;-76
2021/11/14 07:20:33;;;;;;;48.42;32.67;;;4.10;99.90;;;4.24;80.31;101779.19;4919785;29;20216;-74
2021/11/14 07:23:02;;;;;;;51.20;39.72;;;4.20;99.90;;;4.34;79.59;101785.41;4918885;29;20250;-74
2021/11/14 07:25:30;;;;;;;57.22;43.10;;;4.30;99.90;;;4.40;79.21;101778.66;4918249;29;20603;-75
2021/11/14 07:28:01;;;;;;;103.07;93.25;;;4.30;99.90;;;4.30;79.21;101793.88;4919831;29;20265;-74
2021/11/14 07:30:32;;;;;;;68.63;57.15;;;4.30;99.90;;;4.31;78.97;101790.19;4939698;29;20626;-75
2021/11/14 07:33:02;;;;;;;45.67;34.55;;;4.40;99.90;;;4.35;78.78;101788.94;4947487;29;20315;-76
2021/11/14 07:35:36;;;;;;;54.08;33.45;;;4.40;99.90;;;4.17;79.50;101788.75;4946853;29;20177;-76
2021/11/14 07:38:05;;;;;;;51.22;34.33;;;4.30;99.90;;;4.44;79.30;101795.28;4947163;29;20176;-75
2021/11/14 07:40:34;;;;;;;44.47;26.08;;;4.40;99.90;;;4.65;78.51;101794.13;4945502;29;20655;-75
2021/11/14 07:43:04;;;;;;;40.38;30.45;;;4.60;99.90;;;4.86;77.91;101803.88;4945982;29;20217;-75
2021/11/14 07:45:39;;;;;;;40.95;28.65;;;4.70;99.90;;;4.77;77.10;101797.53;4948314;29;20264;-75
2021/11/14 07:48:10;;;;;;;47.85;28.00;;;4.80;99.90;;;4.88;77.25;101813.47;4947249;29;20241;-74
2021/11/14 07:50:40;;;;;;;49.58;31.95;;;4.80;99.90;;;4.90;76.98;101816.84;4940144;29;20228;-74
2021/11/14 07:53:09;;;;;;;46.08;30.92;;;4.90;99.90;;;5.02;76.78;101807.66;4942643;29;20235;-75
2021/11/14 07:55:38;;;;;;;45.67;31.70;;;5.00;99.90;;;5.01;77.22;101815.84;4941967;29;20613;-75
2021/11/14 07:58:08;;;;;;;45.05;30.98;;;5.00;99.90;;;5.18;76.48;101817.81;4944777;29;20185;-74
2021/11/14 08:00:39;;;;;;;46.25;27.85;;;5.10;99.90;;;5.25;76.06;101809.00;4944721;29;20260;-75
2021/11/14 08:03:10;;;;;;;45.50;31.45;;;5.20;99.90;;;5.15;76.79;101818.06;4944319;29;20618;-75
2021/11/14 08:05:40;;;;;;;50.45;32.88;;;5.10;99.90;;;5.22;76.55;101803.94;4937470;29;20181;-74
2021/11/14 08:08:09;;;;;;;50.05;32.30;;;5.20;99.90;;;5.33;76.27;101816.31;4935751;29;20205;-74
2021/11/14 08:10:39;;;;;;;52.83;32.90;;;5.30;99.90;;;5.37;76.51;101816.91;4937369;29;20197;-76
2021/11/14 08:13:10;;;;;;;52.45;36.05;;;5.30;99.90;;;5.59;75.86;101828.13;4937150;29;20314;-74
2021/11/14 08:15:39;;;;;;;53.85;34.03;;;5.40;99.90;;;5.67;75.43;101819.31;4937325;29;20181;-74
2021/11/14 08:18:08;;;;;;;54.30;33.92;;;5.60;99.90;;;5.63;75.65;101823.28;4937276;29;20709;-75
2021/11/14 08:20:37;;;;;;;53.38;33.53;;;5.60;99.90;;;5.66;75.86;101831.06;4940780;29;20207;-76
2021/11/14 08:23:07;;;;;;;54.22;34.08;;;5.60;99.90;;;5.95;75.36;101833.66;4937086;29;20295;-75
2021/11/14 08:25:37;;;;;;;52.00;35.63;;;5.80;99.90;;;6.08;74.98;101824.25;4938389;29;20181;-75
2021/11/14 08:28:05;;;;;;;65.15;38.75;;;5.90;99.90;;;6.22;74.46;101833.63;4952268;29;20224;-74
2021/11/14 08:30:36;;;;;;;59.85;37.10;;;6.20;99.90;;;6.26;74.50;101829.63;4918484;29;20196;-75
2021/11/14 08:33:06;;;;;;;51.08;32.55;;;6.30;99.90;;;6.55;73.28;101832.97;4916043;29;20801;-73
2021/11/14 08:35:35;;;;;;;57.60;35.58;;;6.40;99.90;;;6.40;73.97;101828.25;4917664;29;20237;-75
2021/11/14 08:38:05;;;;;;;56.60;36.70;;;6.40;99.90;;;6.32;74.45;101831.72;4917377;29;20193;-75
2021/11/14 08:40:36;;;;;;;69.15;38.03;;;6.40;99.90;;;6.17;74.81;101835.06;4917902;29;20200;-75
2021/11/14 08:43:08;;;;;;;59.53;35.20;;;6.30;99.90;;;6.17;75.01;101833.25;4915816;29;20229;-74
2021/11/14 08:45:39;;;;;;;56.85;37.55;;;6.20;99.90;;;6.16;75.03;101850.34;4917559;29;20719;-74
2021/11/14 08:48:07;;;;;;;71.03;36.42;;;6.20;99.90;;;6.14;75.41;101849.66;4917512;29;20180;-74
2021/11/14 08:50:36;;;;;;;62.15;38.05;;;6.20;99.90;;;6.06;75.69;101852.25;4916587;29;20707;-75
2021/11/14 08:53:05;;;;;;;60.88;36.55;;;6.20;99.90;;;6.02;76.15;101861.59;4917759;29;20225;-75
2021/11/14 08:55:33;;;;;;;72.18;41.60;;;6.10;99.90;;;6.09;75.96;101873.47;4916329;29;20209;-75
2021/11/14 08:58:22;;;;;;;64.60;37.08;;;6.10;99.90;;;5.97;76.32;101871.94;4917814;29;20178;-74
2021/11/14 09:00:53;;;;;;;69.50;40.92;;;6.00;99.90;;;5.87;76.43;101876.53;4918355;29;20201;-76
2021/11/14 09:03:22;;;;;;;69.68;41.22;;;6.00;99.90;;;5.73;76.84;101883.19;4917858;29;20305;-75
2021/11/14 09:05:51;;;;;;;85.30;42.50;;;5.90;99.90;;;5.64;77.30;101890.28;4917999;29;20237;-76
2021/11/14 09:08:19;;;;;;;63.83;42.08;;;5.80;99.90;;;5.67;77.54;101898.03;4916385;29;20186;-74
2021/11/14 09:10:48;;;;;;;68.32;39.40;;;5.70;99.90;;;5.74;77.12;101894.78;4919134;29;20679;-75
2021/11/14 09:13:17;;;;;;;61.65;39.42;;;5.70;99.90;;;5.83;77.10;101910.00;4936577;29;20589;-75
2021/11/14 09:15:46;;;;;;;77.40;44.17;;;5.80;99.90;;;5.84;77.19;101901.81;4934862;29;20240;-76
2021/11/14 09:18:17;;;;;;;83.57;48.10;;;5.80;99.90;;;5.73;77.64;101909.19;4936110;29;20189;-75
2021/11/14 09:20:47;;;;;;;79.40;50.17;;;5.80;99.90;;;5.86;77.01;101909.72;4936155;29;20183;-75
2021/11/14 09:23:17;;;;;;;77.13;45.20;;;5.80;99.90;;;5.93;76.99;101913.53;4950537;29;20228;-75
2021/11/14 09:25:47;;;;;;;82.45;49.90;;;5.90;99.90;;;6.11;76.67;101930.56;4935562;29;20192;-75
2021/11/14 09:28:18;;;;;;;70.95;44.92;;;6.00;99.90;;;6.15;76.23;101933.84;4935694;29;20181;-76
2021/11/14 09:30:50;;;;;;;76.22;45.45;;;6.10;99.90;;;6.21;76.00;101936.75;4935323;29;20184;-74
2021/11/14 09:33:24;;;;;;;63.35;40.83;;;6.20;99.90;;;6.16;76.16;101939.03;4974675;23;20598;-74
2021/11/14 09:35:53;;;;;;;71.93;42.78;;;6.30;99.90;;;6.16;76.69;101941.72;4938961;29;20184;-74
2021/11/14 09:38:22;;;;;;;79.13;44.85;;;6.20;99.90;;;6.27;76.23;101948.75;4937781;29;20576;-74
2021/11/14 09:40:52;;;;;;;78.82;42.83;;;6.20;99.90;;;6.43;75.53;101947.13;4937422;29;20761;-74
2021/11/14 09:43:21;;;;;;;85.10;44.85;;;6.30;99.90;;;6.28;75.67;101937.88;4938110;29;20232;-74
2021/11/14 09:45:52;;;;;;;76.45;44.83;;;6.40;99.90;;;6.44;75.57;101947.94;4937094;29;20256;-74
2021/11/14 09:48:23;;;;;;;79.95;47.55;;;6.40;99.90;;;6.57;75.63;101948.47;4936748;29;20650;-75
2021/11/14 09:50:54;;;;;;;80.57;47.80;;;6.50;99.90;;;6.66;74.88;101949.41;4938137;29;20211;-74
2021/11/14 09:53:29;;;;;;;84.95;49.40;;;6.60;99.90;;;6.74;74.48;101949.47;4938529;29;20216;-74
2021/11/14 09:56:00;;;;;;;88.00;50.20;;;6.70;99.90;;;6.84;74.24;101944.88;4954093;29;20629;-74
2021/11/14 09:58:29;;;;;;;74.78;44.35;;;6.80;99.90;;;6.78;74.64;101954.41;4939786;29;20181;-75
2021/11/14 10:00:59;;;;;;;75.43;45.72;;;6.70;99.90;;;6.73;74.58;101959.38;4938549;29;20184;-74
2021/11/14 10:03:31;;;;;;;75.18;46.30;;;6.80;99.90;;;6.78;74.44;101967.00;4938700;29;20212;-74
2021/11/14 10:06:00;;;;;;;75.00;44.17;;;6.70;99.90;;;6.76;74.48;101963.63;4939938;29;20181;-74
2021/11/14 10:08:38;;;;;;;78.15;46.05;;;6.70;99.90;;;6.72;75.00;101967.63;4938505;29;20192;-76
2021/11/14 10:11:06;;;;;;;87.00;49.00;;;6.70;99.90;;;6.84;74.30;101967.25;4952304;29;20284;-73
2021/11/14 10:13:37;;;;;;;79.65;48.83;;;6.70;99.90;;;6.90;74.26;101981.94;4939142;29;20240;-74
2021/11/14 10:16:10;;;;;;;81.20;48.60;;;6.80;99.90;;;7.00;73.76;101966.59;4939551;29;20549;-74
2021/11/14 10:18:50;;;;;;;78.70;45.85;;;6.90;99.90;;;7.12;73.04;101976.13;4938122;29;20475;-74
2021/11/14 10:21:21;;;;;;;138.32;113.47;;;7.00;99.90;;;6.95;73.69;101976.97;4938167;29;20638;-74
2021/11/14 10:23:51;;;;;;;79.35;48.20;;;6.90;99.90;;;7.13;73.41;101977.81;4939787;29;20220;-74